Terminal Aerodrome Forecast
Issued by NWS

Home | Current Version | Previous Version | Graphics & Text | Print | Product List | Glossary On
Versions: 1 2 3 4 5 6 7 8 9 10 11 12 13 14 15
000
FTUS42 KMHX 220540
TAFOAJ
TAF
KOAJ 220540Z 2206/2306 00000KT 3SM BR SCT002
      TEMPO 2206/2209 1SM BR SCT005
     FM220900 00000KT 2SM BR SCT005
      TEMPO 2209/2213 1SM BR BKN005
     FM221400 00000KT 1SM BR FEW040
     FM221500 00000KT P6SM SKC
      AMD LTD TO CLD VIS AND WIND=

USA.gov is the U.S. government's official web portal to all federal, state and local government web resources and services.